sensor_id;sensor_type;location;lat;lon;timestamp;noise_LAeq;noise_LA_min;noise_LA_max;noise_LA01;noise_LA95
66450;Laerm;56829;52.274;4.770;2023-03-30T00:00:02;34.86;32.62;37.17;;
66450;Laerm;56829;52.274;4.770;2023-03-30T00:00:24;35.23;32.65;38.00;;
66450;Laerm;56829;52.274;4.770;2023-03-30T00:00:34;36.25;33.75;40.23;;
66450;Laerm;56829;52.274;4.770;2023-03-30T00:00:44;35.78;34.05;38.42;;
66450;Laerm;56829;52.274;4.770;2023-03-30T00:00:55;35.55;33.35;38.10;;
66450;Laerm;56829;52.274;4.770;2023-03-30T00:01:05;35.41;33.05;38.47;;
66450;Laerm;56829;52.274;4.770;2023-03-30T00:01:20;35.59;32.89;38.24;;
66450;Laerm;56829;52.274;4.770;2023-03-30T00:01:31;34.85;32.69;41.78;;
66450;Laerm;56829;52.274;4.770;2023-03-30T00:01:41;34.75;32.93;38.07;;
66450;Laerm;56829;52.274;4.770;2023-03-30T00:01:51;35.82;33.70;38.51;;
66450;Laerm;56829;52.274;4.770;2023-03-30T00:02:03;36.19;33.93;39.21;;
66450;Laerm;56829;52.274;4.770;2023-03-30T00:02:14;35.98;33.17;39.95;;
66450;Laerm;56829;52.274;4.770;2023-03-30T00:02:27;35.02;33.29;36.72;;
66450;Laerm;56829;52.274;4.770;2023-03-30T00:02:40;35.30;32.67;37.91;;
66450;Laerm;56829;52.274;4.770;2023-03-30T00:02:53;35.65;33.25;37.64;;
66450;Laerm;56829;52.274;4.770;2023-03-30T00:03:03;35.70;33.38;37.99;;
66450;Laerm;56829;52.274;4.770;2023-03-30T00:03:13;35.68;33.87;37.33;;
66450;Laerm;56829;52.274;4.770;2023-03-30T00:03:23;34.96;33.03;37.34;;
66450;Laerm;56829;52.274;4.770;2023-03-30T00:03:36;35.42;32.65;37.38;;
66450;Laerm;56829;52.274;4.770;2023-03-30T00:03:47;36.46;34.35;42.84;;
66450;Laerm;56829;52.274;4.770;2023-03-30T00:03:58;35.37;33.52;37.54;;
66450;Laerm;56829;52.274;4.770;2023-03-30T00:04:09;35.25;33.06;41.64;;
66450;Laerm;56829;52.274;4.770;2023-03-30T00:04:21;35.16;32.89;36.99;;
66450;Laerm;56829;52.274;4.770;2023-03-30T00:04:35;34.93;32.81;36.87;;
66450;Laerm;56829;52.274;4.770;2023-03-30T00:04:46;36.12;32.63;40.74;;
66450;Laerm;56829;52.274;4.770;2023-03-30T00:04:56;38.06;33.19;45.10;;
66450;Laerm;56829;52.274;4.770;2023-03-30T00:05:12;35.18;32.72;39.86;;
66450;Laerm;56829;52.274;4.770;2023-03-30T00:05:22;36.45;34.03;41.68;;
66450;Laerm;56829;52.274;4.770;2023-03-30T00:05:33;39.35;34.08;50.13;;
66450;Laerm;56829;52.274;4.770;2023-03-30T00:05:44;36.25;34.00;38.61;;
66450;Laerm;56829;52.274;4.770;2023-03-30T00:05:55;36.71;34.09;38.92;;
66450;Laerm;56829;52.274;4.770;2023-03-30T00:06:05;35.37;32.78;37.54;;
66450;Laerm;56829;52.274;4.770;2023-03-30T00:06:16;34.82;32.99;36.90;;
66450;Laerm;56829;52.274;4.770;2023-03-30T00:06:33;36.29;33.95;39.67;;
66450;Laerm;56829;52.274;4.770;2023-03-30T00:06:43;36.21;34.18;38.79;;
66450;Laerm;56829;52.274;4.770;2023-03-30T00:06:53;35.93;34.21;37.81;;
66450;Laerm;56829;52.274;4.770;2023-03-30T00:07:03;36.08;33.92;38.61;;
66450;Laerm;56829;52.274;4.770;2023-03-30T00:07:14;36.16;33.88;40.77;;
66450;Laerm;56829;52.274;4.770;2023-03-30T00:07:25;35.75;33.99;38.08;;
66450;Laerm;56829;52.274;4.770;2023-03-30T00:07:36;35.95;33.85;38.70;;
66450;Laerm;56829;52.274;4.770;2023-03-30T00:07:47;36.90;34.36;40.04;;
66450;Laerm;56829;52.274;4.770;2023-03-30T00:07:57;36.26;33.45;38.08;;
66450;Laerm;56829;52.274;4.770;2023-03-30T00:08:07;36.13;33.75;37.83;;
66450;Laerm;56829;52.274;4.770;2023-03-30T00:08:17;37.75;34.34;43.06;;
66450;Laerm;56829;52.274;4.770;2023-03-30T00:08:28;37.12;34.07;42.66;;
66450;Laerm;56829;52.274;4.770;2023-03-30T00:08:38;35.46;33.28;38.12;;
66450;Laerm;56829;52.274;4.770;2023-03-30T00:08:52;35.23;33.70;37.02;;
66450;Laerm;56829;52.274;4.770;2023-03-30T00:09:05;35.62;33.47;38.62;;
66450;Laerm;56829;52.274;4.770;2023-03-30T00:09:16;34.70;32.99;36.64;;
66450;Laerm;56829;52.274;4.770;2023-03-30T00:09:26;34.76;32.90;36.49;;
66450;Laerm;56829;52.274;4.770;2023-03-30T00:09:39;35.60;33.45;39.00;;
66450;Laerm;56829;52.274;4.770;2023-03-30T00:09:52;35.82;33.47;39.00;;
66450;Laerm;56829;52.274;4.770;2023-03-30T00:10:03;36.35;33.52;44.63;;
66450;Laerm;56829;52.274;4.770;2023-03-30T00:10:15;35.81;34.08;40.05;;
66450;Laerm;56829;52.274;4.770;2023-03-30T00:10:29;36.78;33.82;45.15;;
66450;Laerm;56829;52.274;4.770;2023-03-30T00:10:39;36.70;34.20;41.36;;
66450;Laerm;56829;52.274;4.770;2023-03-30T00:11:03;35.14;32.69;40.58;;
66450;Laerm;56829;52.274;4.770;2023-03-30T00:11:14;34.81;32.93;39.51;;
66450;Laerm;56829;52.274;4.770;2023-03-30T00:11:26;35.55;33.42;39.84;;
66450;Laerm;56829;52.274;4.770;2023-03-30T00:11:36;38.10;34.62;47.93;;
66450;Laerm;56829;52.274;4.770;2023-03-30T00:11:46;41.56;33.71;59.33;;
66450;Laerm;56829;52.274;4.770;2023-03-30T00:11:57;40.42;35.45;49.24;;
66450;Laerm;56829;52.274;4.770;2023-03-30T00:12:12;35.98;33.77;40.37;;
66450;Laerm;56829;52.274;4.770;2023-03-30T00:12:24;35.08;33.45;36.97;;
66450;Laerm;56829;52.274;4.770;2023-03-30T00:12:34;35.01;33.19;36.77;;
66450;Laerm;56829;52.274;4.770;2023-03-30T00:12:45;36.45;33.95;38.27;;
66450;Laerm;56829;52.274;4.770;2023-03-30T00:12:56;36.32;33.98;40.71;;
66450;Laerm;56829;52.274;4.770;2023-03-30T00:13:07;38.22;35.01;43.83;;
66450;Laerm;56829;52.274;4.770;2023-03-30T00:13:17;47.91;39.62;53.59;;
66450;Laerm;56829;52.274;4.770;2023-03-30T00:13:28;50.02;36.53;59.66;;
66450;Laerm;56829;52.274;4.770;2023-03-30T00:13:38;36.77;34.63;41.88;;
66450;Laerm;56829;52.274;4.770;2023-03-30T00:13:48;36.46;34.75;40.40;;
66450;Laerm;56829;52.274;4.770;2023-03-30T00:14:01;36.03;33.67;38.84;;
66450;Laerm;56829;52.274;4.770;2023-03-30T00:14:12;36.56;34.75;38.41;;
66450;Laerm;56829;52.274;4.770;2023-03-30T00:14:22;36.43;34.61;38.09;;
66450;Laerm;56829;52.274;4.770;2023-03-30T00:14:38;41.29;34.96;51.17;;
66450;Laerm;56829;52.274;4.770;2023-03-30T00:14:51;37.74;35.64;40.80;;
66450;Laerm;56829;52.274;4.770;2023-03-30T00:15:01;37.45;34.86;40.25;;
66450;Laerm;56829;52.274;4.770;2023-03-30T00:15:12;36.48;34.90;38.04;;
66450;Laerm;56829;52.274;4.770;2023-03-30T00:15:23;37.34;35.30;40.72;;
66450;Laerm;56829;52.274;4.770;2023-03-30T00:15:33;37.43;35.27;40.69;;
66450;Laerm;56829;52.274;4.770;2023-03-30T00:15:43;36.40;34.44;38.46;;
66450;Laerm;56829;52.274;4.770;2023-03-30T00:15:53;37.07;34.81;39.25;;
66450;Laerm;56829;52.274;4.770;2023-03-30T00:16:04;36.73;34.25;39.84;;
66450;Laerm;56829;52.274;4.770;2023-03-30T00:16:15;36.16;33.60;41.91;;
66450;Laerm;56829;52.274;4.770;2023-03-30T00:16:26;37.27;34.19;41.61;;
66450;Laerm;56829;52.274;4.770;2023-03-30T00:16:36;38.77;36.02;42.89;;
66450;Laerm;56829;52.274;4.770;2023-03-30T00:16:46;37.51;34.22;40.63;;
66450;Laerm;56829;52.274;4.770;2023-03-30T00:16:56;36.45;34.50;41.23;;
66450;Laerm;56829;52.274;4.770;2023-03-30T00:17:07;37.95;34.62;46.78;;
66450;Laerm;56829;52.274;4.770;2023-03-30T00:17:17;39.42;36.25;48.22;;
66450;Laerm;56829;52.274;4.770;2023-03-30T00:17:28;48.61;41.41;63.02;;
66450;Laerm;56829;52.274;4.770;2023-03-30T00:17:38;40.66;35.71;53.63;;
66450;Laerm;56829;52.274;4.770;2023-03-30T00:17:49;39.04;35.42;47.18;;
66450;Laerm;56829;52.274;4.770;2023-03-30T00:18:03;39.27;34.09;55.80;;
66450;Laerm;56829;52.274;4.770;2023-03-30T00:18:13;37.27;35.09;40.39;;
66450;Laerm;56829;52.274;4.770;2023-03-30T00:18:24;38.52;35.00;44.25;;
66450;Laerm;56829;52.274;4.770;2023-03-30T00:18:35;40.71;35.08;50.99;;
66450;Laerm;56829;52.274;4.770;2023-03-30T00:18:45;42.41;36.91;57.15;;
66450;Laerm;56829;52.274;4.770;2023-03-30T00:18:56;38.17;36.32;41.32;;
66450;Laerm;56829;52.274;4.770;2023-03-30T00:19:06;41.71;35.75;56.69;;
66450;Laerm;56829;52.274;4.770;2023-03-30T00:19:16;38.24;35.15;45.99;;
66450;Laerm;56829;52.274;4.770;2023-03-30T00:19:27;41.35;37.31;49.22;;
66450;Laerm;56829;52.274;4.770;2023-03-30T00:19:37;39.89;36.59;51.01;;
66450;Laerm;56829;52.274;4.770;2023-03-30T00:19:47;40.03;36.51;49.44;;
66450;Laerm;56829;52.274;4.770;2023-03-30T00:19:58;43.11;37.71;53.52;;
66450;Laerm;56829;52.274;4.770;2023-03-30T00:20:11;38.19;35.60;45.74;;
66450;Laerm;56829;52.274;4.770;2023-03-30T00:20:22;45.52;34.94;61.36;;
66450;Laerm;56829;52.274;4.770;2023-03-30T00:20:32;39.47;35.59;50.39;;
66450;Laerm;56829;52.274;4.770;2023-03-30T00:20:42;36.38;34.13;41.99;;
66450;Laerm;56829;52.274;4.770;2023-03-30T00:20:54;35.95;33.70;40.54;;
66450;Laerm;56829;52.274;4.770;2023-03-30T00:21:05;36.22;34.29;41.12;;
66450;Laerm;56829;52.274;4.770;2023-03-30T00:21:16;35.93;34.15;38.28;;
66450;Laerm;56829;52.274;4.770;2023-03-30T00:21:27;36.32;33.60;42.88;;
66450;Laerm;56829;52.274;4.770;2023-03-30T00:21:37;36.13;34.54;40.05;;
66450;Laerm;56829;52.274;4.770;2023-03-30T00:21:47;36.98;34.51;39.51;;
66450;Laerm;56829;52.274;4.770;2023-03-30T00:21:58;36.61;33.90;43.96;;
66450;Laerm;56829;52.274;4.770;2023-03-30T00:22:08;38.07;33.48;52.00;;
66450;Laerm;56829;52.274;4.770;2023-03-30T00:22:18;36.02;34.39;39.77;;
66450;Laerm;56829;52.274;4.770;2023-03-30T00:22:29;37.79;34.57;40.73;;
66450;Laerm;56829;52.274;4.770;2023-03-30T00:22:40;39.86;35.70;50.96;;
66450;Laerm;56829;52.274;4.770;2023-03-30T00:22:50;38.62;36.05;44.33;;
66450;Laerm;56829;52.274;4.770;2023-03-30T00:23:01;48.57;37.16;72.72;;
66450;Laerm;56829;52.274;4.770;2023-03-30T00:23:11;38.95;36.52;46.02;;
66450;Laerm;56829;52.274;4.770;2023-03-30T00:23:21;38.45;36.13;44.72;;
66450;Laerm;56829;52.274;4.770;2023-03-30T00:23:32;40.51;37.03;52.52;;
66450;Laerm;56829;52.274;4.770;2023-03-30T00:23:42;49.67;41.18;68.76;;
66450;Laerm;56829;52.274;4.770;2023-03-30T00:23:55;47.57;40.97;59.71;;
66450;Laerm;56829;52.274;4.770;2023-03-30T00:24:05;48.88;41.24;61.46;;
66450;Laerm;56829;52.274;4.770;2023-03-30T00:24:15;43.36;41.49;54.85;;
66450;Laerm;56829;52.274;4.770;2023-03-30T00:24:25;42.31;40.37;53.19;;
66450;Laerm;56829;52.274;4.770;2023-03-30T00:24:35;47.47;40.72;61.41;;
66450;Laerm;56829;52.274;4.770;2023-03-30T00:24:46;51.39;46.66;71.63;;
66450;Laerm;56829;52.274;4.770;2023-03-30T00:24:56;53.52;45.73;75.14;;
66450;Laerm;56829;52.274;4.770;2023-03-30T00:25:07;45.57;42.19;51.97;;
66450;Laerm;56829;52.274;4.770;2023-03-30T00:25:17;42.77;40.79;51.88;;
66450;Laerm;56829;52.274;4.770;2023-03-30T00:25:28;43.35;40.02;52.64;;
66450;Laerm;56829;52.274;4.770;2023-03-30T00:25:38;42.51;40.09;49.35;;
66450;Laerm;56829;52.274;4.770;2023-03-30T00:25:48;43.04;40.55;58.13;;
66450;Laerm;56829;52.274;4.770;2023-03-30T00:25:58;44.98;42.26;50.64;;
66450;Laerm;56829;52.274;4.770;2023-03-30T00:26:08;47.65;43.86;67.12;;
66450;Laerm;56829;52.274;4.770;2023-03-30T00:26:19;47.08;43.72;50.95;;
66450;Laerm;56829;52.274;4.770;2023-03-30T00:26:29;47.16;44.05;58.20;;
66450;Laerm;56829;52.274;4.770;2023-03-30T00:26:40;44.22;42.12;55.12;;
66450;Laerm;56829;52.274;4.770;2023-03-30T00:26:50;44.21;42.23;48.63;;
66450;Laerm;56829;52.274;4.770;2023-03-30T00:27:00;44.08;41.91;47.63;;
66450;Laerm;56829;52.274;4.770;2023-03-30T00:27:10;43.75;40.88;59.94;;
66450;Laerm;56829;52.274;4.770;2023-03-30T00:27:20;40.57;38.17;45.07;;
66450;Laerm;56829;52.274;4.770;2023-03-30T00:27:31;38.16;35.61;41.04;;
66450;Laerm;56829;52.274;4.770;2023-03-30T00:27:41;45.56;35.66;69.62;;
66450;Laerm;56829;52.274;4.770;2023-03-30T00:27:52;37.06;34.99;49.13;;
66450;Laerm;56829;52.274;4.770;2023-03-30T00:28:02;36.47;34.27;38.69;;
66450;Laerm;56829;52.274;4.770;2023-03-30T00:28:13;36.94;35.48;40.26;;
66450;Laerm;56829;52.274;4.770;2023-03-30T00:28:23;37.62;35.37;40.51;;
66450;Laerm;56829;52.274;4.770;2023-03-30T00:28:35;38.74;36.45;43.63;;
66450;Laerm;56829;52.274;4.770;2023-03-30T00:28:45;42.23;35.38;55.13;;
66450;Laerm;56829;52.274;4.770;2023-03-30T00:28:55;35.79;34.04;39.00;;
66450;Laerm;56829;52.274;4.770;2023-03-30T00:29:05;35.45;33.04;38.43;;
66450;Laerm;56829;52.274;4.770;2023-03-30T00:29:16;35.23;33.57;36.82;;
66450;Laerm;56829;52.274;4.770;2023-03-30T00:29:26;35.27;33.67;36.99;;
66450;Laerm;56829;52.274;4.770;2023-03-30T00:29:36;35.04;33.66;36.82;;
66450;Laerm;56829;52.274;4.770;2023-03-30T00:29:46;36.08;33.66;39.49;;
66450;Laerm;56829;52.274;4.770;2023-03-30T00:29:57;35.30;33.63;39.44;;
66450;Laerm;56829;52.274;4.770;2023-03-30T00:30:09;39.44;33.93;56.84;;
66450;Laerm;56829;52.274;4.770;2023-03-30T00:30:19;36.44;33.96;44.43;;
66450;Laerm;56829;52.274;4.770;2023-03-30T00:30:29;35.07;33.26;38.09;;
66450;Laerm;56829;52.274;4.770;2023-03-30T00:30:40;44.59;33.86;58.69;;
66450;Laerm;56829;52.274;4.770;2023-03-30T00:30:50;42.15;36.43;53.90;;
66450;Laerm;56829;52.274;4.770;2023-03-30T00:31:02;40.10;33.02;51.55;;
66450;Laerm;56829;52.274;4.770;2023-03-30T00:31:12;35.53;33.07;37.79;;
66450;Laerm;56829;52.274;4.770;2023-03-30T00:31:23;36.92;34.23;41.39;;
66450;Laerm;56829;52.274;4.770;2023-03-30T00:31:33;36.07;33.43;40.14;;
66450;Laerm;56829;52.274;4.770;2023-03-30T00:31:43;40.46;34.41;53.46;;
66450;Laerm;56829;52.274;4.770;2023-03-30T00:31:56;47.26;36.36;62.06;;
66450;Laerm;56829;52.274;4.770;2023-03-30T00:32:06;40.54;35.66;56.11;;
66450;Laerm;56829;52.274;4.770;2023-03-30T00:32:17;45.93;36.74;58.85;;
66450;Laerm;56829;52.274;4.770;2023-03-30T00:32:27;46.70;36.64;57.60;;
66450;Laerm;56829;52.274;4.770;2023-03-30T00:32:37;40.29;35.77;49.68;;
66450;Laerm;56829;52.274;4.770;2023-03-30T00:32:47;41.06;35.68;47.99;;
66450;Laerm;56829;52.274;4.770;2023-03-30T00:32:58;41.98;36.55;51.79;;
66450;Laerm;56829;52.274;4.770;2023-03-30T00:33:08;40.34;35.19;48.50;;
66450;Laerm;56829;52.274;4.770;2023-03-30T00:33:18;41.44;35.23;53.82;;
66450;Laerm;56829;52.274;4.770;2023-03-30T00:33:29;35.67;33.84;38.26;;
66450;Laerm;56829;52.274;4.770;2023-03-30T00:33:40;35.36;32.99;37.35;;
66450;Laerm;56829;52.274;4.770;2023-03-30T00:33:50;35.58;33.30;42.55;;
66450;Laerm;56829;52.274;4.770;2023-03-30T00:34:00;39.23;34.73;56.40;;
66450;Laerm;56829;52.274;4.770;2023-03-30T00:34:11;35.33;33.52;38.06;;
66450;Laerm;56829;52.274;4.770;2023-03-30T00:34:21;35.78;33.48;41.13;;
66450;Laerm;56829;52.274;4.770;2023-03-30T00:34:31;35.06;33.17;37.05;;
66450;Laerm;56829;52.274;4.770;2023-03-30T00:34:41;35.17;33.17;36.76;;
66450;Laerm;56829;52.274;4.770;2023-03-30T00:34:51;35.93;32.81;38.91;;
66450;Laerm;56829;52.274;4.770;2023-03-30T00:35:02;35.35;33.94;36.92;;
66450;Laerm;56829;52.274;4.770;2023-03-30T00:35:12;36.51;34.56;39.42;;
66450;Laerm;56829;52.274;4.770;2023-03-30T00:35:25;35.40;33.40;37.24;;
66450;Laerm;56829;52.274;4.770;2023-03-30T00:35:39;38.74;33.51;53.53;;
66450;Laerm;56829;52.274;4.770;2023-03-30T00:35:55;39.46;36.00;44.99;;
66450;Laerm;56829;52.274;4.770;2023-03-30T00:36:06;47.04;38.72;65.48;;
66450;Laerm;56829;52.274;4.770;2023-03-30T00:36:17;48.89;36.49;68.41;;
66450;Laerm;56829;52.274;4.770;2023-03-30T00:36:29;38.69;36.05;41.51;;
66450;Laerm;56829;52.274;4.770;2023-03-30T00:36:39;37.35;34.45;46.50;;
66450;Laerm;56829;52.274;4.770;2023-03-30T00:36:49;37.39;35.25;40.18;;
66450;Laerm;56829;52.274;4.770;2023-03-30T00:37:02;37.11;34.69;41.74;;
66450;Laerm;56829;52.274;4.770;2023-03-30T00:37:13;38.05;35.20;42.17;;
66450;Laerm;56829;52.274;4.770;2023-03-30T00:37:24;41.54;35.11;49.24;;
66450;Laerm;56829;52.274;4.770;2023-03-30T00:37:35;55.76;40.98;64.79;;
66450;Laerm;56829;52.274;4.770;2023-03-30T00:37:47;46.75;36.00;61.38;;
66450;Laerm;56829;52.274;4.770;2023-03-30T00:37:58;38.57;35.56;45.59;;
66450;Laerm;56829;52.274;4.770;2023-03-30T00:38:12;35.76;33.55;38.66;;
66450;Laerm;56829;52.274;4.770;2023-03-30T00:38:22;34.96;33.25;36.26;;
66450;Laerm;56829;52.274;4.770;2023-03-30T00:38:32;35.32;33.73;38.74;;
66450;Laerm;56829;52.274;4.770;2023-03-30T00:38:43;36.73;34.10;48.44;;
66450;Laerm;56829;52.274;4.770;2023-03-30T00:38:54;35.43;33.56;38.01;;
66450;Laerm;56829;52.274;4.770;2023-03-30T00:39:04;37.56;33.38;46.07;;
66450;Laerm;56829;52.274;4.770;2023-03-30T00:39:18;44.50;35.96;62.13;;
66450;Laerm;56829;52.274;4.770;2023-03-30T00:39:31;37.61;34.00;46.92;;
66450;Laerm;56829;52.274;4.770;2023-03-30T00:39:42;38.79;35.99;43.88;;
66450;Laerm;56829;52.274;4.770;2023-03-30T00:39:53;41.48;38.02;49.62;;
66450;Laerm;56829;52.274;4.770;2023-03-30T00:40:04;38.80;36.40;42.94;;
66450;Laerm;56829;52.274;4.770;2023-03-30T00:40:18;37.60;35.23;43.72;;
66450;Laerm;56829;52.274;4.770;2023-03-30T00:40:30;37.43;35.00;41.06;;
66450;Laerm;56829;52.274;4.770;2023-03-30T00:40:41;49.58;34.92;61.96;;
66450;Laerm;56829;52.274;4.770;2023-03-30T00:40:52;42.42;36.08;53.13;;
66450;Laerm;56829;52.274;4.770;2023-03-30T00:41:03;38.66;35.41;52.08;;
66450;Laerm;56829;52.274;4.770;2023-03-30T00:41:13;37.56;35.26;46.04;;
66450;Laerm;56829;52.274;4.770;2023-03-30T00:41:23;37.60;34.05;45.00;;
66450;Laerm;56829;52.274;4.770;2023-03-30T00:41:34;38.74;35.07;45.68;;
66450;Laerm;56829;52.274;4.770;2023-03-30T00:41:44;40.75;35.91;54.28;;
66450;Laerm;56829;52.274;4.770;2023-03-30T00:41:55;38.78;33.67;50.85;;
66450;Laerm;56829;52.274;4.770;2023-03-30T00:42:05;37.62;34.32;44.52;;
66450;Laerm;56829;52.274;4.770;2023-03-30T00:42:16;36.96;34.71;43.88;;
66450;Laerm;56829;52.274;4.770;2023-03-30T00:42:26;37.31;34.69;48.05;;
66450;Laerm;56829;52.274;4.770;2023-03-30T00:42:36;44.76;37.16;57.53;;
66450;Laerm;56829;52.274;4.770;2023-03-30T00:42:47;40.03;36.22;45.48;;
66450;Laerm;56829;52.274;4.770;2023-03-30T00:42:58;40.49;36.79;45.53;;
66450;Laerm;56829;52.274;4.770;2023-03-30T00:43:10;54.23;39.08;69.31;;
66450;Laerm;56829;52.274;4.770;2023-03-30T00:43:20;47.37;39.50;65.84;;
66450;Laerm;56829;52.274;4.770;2023-03-30T00:43:30;42.20;34.40;57.54;;
66450;Laerm;56829;52.274;4.770;2023-03-30T00:43:53;37.08;34.00;46.54;;
66450;Laerm;56829;52.274;4.770;2023-03-30T00:45:18;43.34;38.19;50.36;;
66450;Laerm;56829;52.274;4.770;2023-03-30T00:45:30;44.58;37.57;56.38;;
66450;Laerm;56829;52.274;4.770;2023-03-30T00:45:40;40.21;36.44;48.56;;
66450;Laerm;56829;52.274;4.770;2023-03-30T00:45:50;37.26;34.67;43.29;;
66450;Laerm;56829;52.274;4.770;2023-03-30T00:46:01;40.09;36.57;43.22;;
66450;Laerm;56829;52.274;4.770;2023-03-30T00:46:11;42.45;38.48;52.20;;
66450;Laerm;56829;52.274;4.770;2023-03-30T00:46:22;37.70;35.43;41.76;;
66450;Laerm;56829;52.274;4.770;2023-03-30T00:46:32;39.45;35.42;50.88;;
66450;Laerm;56829;52.274;4.770;2023-03-30T00:46:43;44.42;36.47;54.71;;
66450;Laerm;56829;52.274;4.770;2023-03-30T00:46:53;48.13;36.25;59.69;;
66450;Laerm;56829;52.274;4.770;2023-03-30T00:47:04;53.10;42.01;61.93;;
66450;Laerm;56829;52.274;4.770;2023-03-30T00:47:15;41.93;38.48;47.47;;
66450;Laerm;56829;52.274;4.770;2023-03-30T00:47:25;44.45;38.38;54.91;;
66450;Laerm;56829;52.274;4.770;2023-03-30T00:47:39;47.48;38.94;63.31;;
66450;Laerm;56829;52.274;4.770;2023-03-30T00:48:06;44.52;39.72;52.85;;
66450;Laerm;56829;52.274;4.770;2023-03-30T00:48:28;40.34;35.84;50.62;;
66450;Laerm;56829;52.274;4.770;2023-03-30T00:48:40;41.05;36.59;53.41;;
66450;Laerm;56829;52.274;4.770;2023-03-30T00:48:50;41.42;36.20;52.64;;
66450;Laerm;56829;52.274;4.770;2023-03-30T00:49:02;43.11;37.96;50.37;;
66450;Laerm;56829;52.274;4.770;2023-03-30T00:49:14;47.50;37.61;61.52;;
66450;Laerm;56829;52.274;4.770;2023-03-30T00:49:24;42.89;39.75;48.77;;
66450;Laerm;56829;52.274;4.770;2023-03-30T00:49:34;41.68;39.06;49.62;;
66450;Laerm;56829;52.274;4.770;2023-03-30T00:49:44;50.88;40.44;64.35;;
66450;Laerm;56829;52.274;4.770;2023-03-30T00:49:54;47.46;41.42;58.85;;
66450;Laerm;56829;52.274;4.770;2023-03-30T00:50:05;44.41;39.77;50.49;;
66450;Laerm;56829;52.274;4.770;2023-03-30T00:50:17;39.62;36.31;51.93;;
66450;Laerm;56829;52.274;4.770;2023-03-30T00:50:32;39.34;36.81;50.14;;
66450;Laerm;56829;52.274;4.770;2023-03-30T00:50:45;45.37;38.35;57.21;;
66450;Laerm;56829;52.274;4.770;2023-03-30T00:51:08;51.52;45.97;57.13;;
66450;Laerm;56829;52.274;4.770;2023-03-30T00:51:19;52.16;42.02;66.09;;
66450;Laerm;56829;52.274;4.770;2023-03-30T00:51:30;43.30;40.74;53.04;;
66450;Laerm;56829;52.274;4.770;2023-03-30T00:51:41;45.42;40.88;58.36;;
66450;Laerm;56829;52.274;4.770;2023-03-30T00:51:52;44.04;40.45;48.33;;
66450;Laerm;56829;52.274;4.770;2023-03-30T00:52:02;43.45;40.86;47.00;;
66450;Laerm;56829;52.274;4.770;2023-03-30T00:52:13;44.43;40.89;53.19;;
66450;Laerm;56829;52.274;4.770;2023-03-30T00:52:28;46.43;40.20;61.86;;
66450;Laerm;56829;52.274;4.770;2023-03-30T00:52:39;56.86;43.82;69.87;;
66450;Laerm;56829;52.274;4.770;2023-03-30T00:52:51;52.54;42.67;65.96;;
66450;Laerm;56829;52.274;4.770;2023-03-30T00:53:05;58.15;45.14;73.50;;
66450;Laerm;56829;52.274;4.770;2023-03-30T00:53:17;48.52;43.62;61.03;;
66450;Laerm;56829;52.274;4.770;2023-03-30T00:53:41;50.84;44.51;62.10;;
66450;Laerm;56829;52.274;4.770;2023-03-30T00:53:53;52.67;41.68;61.11;;
66450;Laerm;56829;52.274;4.770;2023-03-30T00:54:07;52.02;40.78;63.48;;
66450;Laerm;56829;52.274;4.770;2023-03-30T00:54:18;49.21;40.48;62.08;;
66450;Laerm;56829;52.274;4.770;2023-03-30T00:54:29;40.65;38.07;48.12;;
66450;Laerm;56829;52.274;4.770;2023-03-30T00:54:39;38.59;36.11;50.54;;
66450;Laerm;56829;52.274;4.770;2023-03-30T00:54:50;43.46;36.32;59.15;;
66450;Laerm;56829;52.274;4.770;2023-03-30T00:55:04;38.54;36.46;48.31;;
66450;Laerm;56829;52.274;4.770;2023-03-30T00:55:16;41.15;36.83;48.84;;
66450;Laerm;56829;52.274;4.770;2023-03-30T00:55:28;47.24;39.68;59.38;;
66450;Laerm;56829;52.274;4.770;2023-03-30T00:55:40;44.17;39.49;54.77;;
66450;Laerm;56829;52.274;4.770;2023-03-30T00:55:51;42.26;39.17;47.14;;
66450;Laerm;56829;52.274;4.770;2023-03-30T00:56:02;43.19;40.23;49.28;;
66450;Laerm;56829;52.274;4.770;2023-03-30T00:56:14;54.51;41.13;68.87;;
66450;Laerm;56829;52.274;4.770;2023-03-30T00:56:26;41.17;38.43;47.31;;
66450;Laerm;56829;52.274;4.770;2023-03-30T00:56:37;43.38;37.79;53.21;;
66450;Laerm;56829;52.274;4.770;2023-03-30T00:56:48;43.01;39.14;51.77;;
66450;Laerm;56829;52.274;4.770;2023-03-30T00:56:58;48.36;42.00;57.93;;
66450;Laerm;56829;52.274;4.770;2023-03-30T00:57:08;49.63;42.40;59.62;;
66450;Laerm;56829;52.274;4.770;2023-03-30T00:57:19;45.75;42.25;50.34;;
66450;Laerm;56829;52.274;4.770;2023-03-30T00:57:31;57.25;44.40;72.93;;
66450;Laerm;56829;52.274;4.770;2023-03-30T00:57:42;50.08;44.22;58.54;;
66450;Laerm;56829;52.274;4.770;2023-03-30T00:57:53;55.90;45.85;67.52;;
66450;Laerm;56829;52.274;4.770;2023-03-30T00:58:04;55.22;43.17;65.47;;
66450;Laerm;56829;52.274;4.770;2023-03-30T00:58:16;50.64;40.36;66.04;;
66450;Laerm;56829;52.274;4.770;2023-03-30T00:58:27;52.11;42.18;62.96;;
66450;Laerm;56829;52.274;4.770;2023-03-30T00:58:39;54.35;42.36;68.19;;
66450;Laerm;56829;52.274;4.770;2023-03-30T00:58:50;42.45;38.82;51.94;;
66450;Laerm;56829;52.274;4.770;2023-03-30T00:59:00;46.04;40.11;56.17;;
66450;Laerm;56829;52.274;4.770;2023-03-30T00:59:11;46.52;41.07;59.47;;
66450;Laerm;56829;52.274;4.770;2023-03-30T00:59:22;44.85;40.74;51.21;;
66450;Laerm;56829;52.274;4.770;2023-03-30T00:59:32;48.67;40.45;65.86;;
66450;Laerm;56829;52.274;4.770;2023-03-30T00:59:42;47.40;41.14;57.58;;
66450;Laerm;56829;52.274;4.770;2023-03-30T00:59:53;48.13;40.32;60.08;;
66450;Laerm;56829;52.274;4.770;2023-03-30T01:00:05;57.49;41.35;76.24;;
66450;Laerm;56829;52.274;4.770;2023-03-30T01:00:17;55.01;42.33;68.12;;
66450;Laerm;56829;52.274;4.770;2023-03-30T01:00:28;55.35;45.90;66.91;;
66450;Laerm;56829;52.274;4.770;2023-03-30T01:00:39;51.53;39.84;60.71;;
66450;Laerm;56829;52.274;4.770;2023-03-30T01:00:49;46.44;38.95;57.42;;
66450;Laerm;56829;52.274;4.770;2023-03-30T01:01:00;47.39;40.22;55.97;;
66450;Laerm;56829;52.274;4.770;2023-03-30T01:01:15;49.95;40.05;63.48;;
66450;Laerm;56829;52.274;4.770;2023-03-30T01:01:34;41.49;38.68;51.62;;
66450;Laerm;56829;52.274;4.770;2023-03-30T01:01:47;48.95;39.28;65.50;;
66450;Laerm;56829;52.274;4.770;2023-03-30T01:01:59;51.89;39.65;63.20;;
66450;Laerm;56829;52.274;4.770;2023-03-30T01:02:09;46.15;38.84;56.89;;
66450;Laerm;56829;52.274;4.770;2023-03-30T01:02:19;45.38;38.75;55.53;;
66450;Laerm;56829;52.274;4.770;2023-03-30T01:02:30;39.52;35.64;50.04;;
66450;Laerm;56829;52.274;4.770;2023-03-30T01:02:43;39.53;36.30;44.83;;
66450;Laerm;56829;52.274;4.770;2023-03-30T01:02:56;40.37;36.51;51.84;;
66450;Laerm;56829;52.274;4.770;2023-03-30T01:03:13;37.93;35.51;41.28;;
66450;Laerm;56829;52.274;4.770;2023-03-30T01:03:37;40.38;35.61;52.82;;
66450;Laerm;56829;52.274;4.770;2023-03-30T01:03:48;40.73;36.35;48.83;;
66450;Laerm;56829;52.274;4.770;2023-03-30T01:03:59;46.14;39.43;56.67;;
66450;Laerm;56829;52.274;4.770;2023-03-30T01:04:14;52.13;43.06;68.20;;
66450;Laerm;56829;52.274;4.770;2023-03-30T01:04:26;47.22;38.21;58.80;;
66450;Laerm;56829;52.274;4.770;2023-03-30T01:04:37;40.44;37.49;48.52;;
66450;Laerm;56829;52.274;4.770;2023-03-30T01:04:48;46.49;38.11;63.37;;
66450;Laerm;56829;52.274;4.770;2023-03-30T01:05:00;48.48;40.23;60.17;;